Time;durP1;ratioP1;P1;durP2;ratioP2;P2;SDS_P1;SDS_P2;PMS_P1;PMS_P2;Temp;Humidity;BMP_temperature;BMP_pressure;BME280_temperature;BME280_humidity;BME280_pressure;Samples;Min_cycle;Max_cycle;Signal;HPM_P1;HPM_P2
2022/05/18 00:00:48;;;;;;;;;6.00;3.50;;;;;29.05;100.00;100948.88;4980187;28;51202;-52
2022/05/18 00:03:41;;;;;;;;;8.50;5.00;;;;;28.98;100.00;100933.91;4980148;28;51139;-48
2022/05/18 00:06:27;;;;;;;;;15.25;6.50;;;;;29.01;100.00;100930.91;5018428;28;51146;-51
2022/05/18 00:09:21;;;;;;;;;6.25;4.00;;;;;29.05;100.00;100935.16;5062096;28;51506;-51
2022/05/18 00:12:11;;;;;;;;;8.00;4.00;;;;;29.06;100.00;100942.41;5046510;28;51193;-50
2022/05/18 00:15:01;;;;;;;;;5.50;4.25;;;;;29.04;100.00;100941.63;5032369;28;51220;-47
2022/05/18 00:17:49;;;;;;;;;6.25;5.00;;;;;29.03;100.00;100948.09;5062006;28;51183;-46
2022/05/18 00:21:01;;;;;;;;;9.00;4.00;;;;;28.97;100.00;100941.25;4980086;28;51061;-48
2022/05/18 00:23:53;;;;;;;;;7.25;5.00;;;;;29.02;100.00;100955.47;4979898;28;51244;-49
2022/05/18 00:27:03;;;;;;;;;13.25;4.50;;;;;29.04;100.00;100956.22;4979830;28;51578;-47
2022/05/18 00:33:12;;;;;;;;;6.75;4.50;;;;;29.10;100.00;100965.81;4979479;28;51193;-50
2022/05/18 00:35:58;;;;;;;;;15.00;8.25;;;;;29.14;100.00;100963.72;4965630;28;51240;-52
2022/05/18 00:39:06;;;;;;;;;12.25;7.50;;;;;29.16;100.00;100959.84;4979563;28;51219;-47
2022/05/18 00:41:51;;;;;;;;;8.00;5.50;;;;;29.16;100.00;100964.44;4979474;28;51079;-48
2022/05/18 00:44:40;;;;;;;;;8.50;5.75;;;;;29.21;100.00;100965.81;4965318;28;51267;-48
2022/05/18 00:47:37;;;;;;;;;9.25;6.25;;;;;29.23;100.00;100974.81;4979357;28;51178;-49
2022/05/18 00:50:34;;;;;;;;;12.50;5.75;;;;;29.23;100.00;100963.84;4979325;28;51490;-52
2022/05/18 00:53:57;;;;;;;;;11.75;6.50;;;;;29.22;100.00;100962.09;4979185;28;51432;-50
2022/05/18 00:56:55;;;;;;;;;10.75;6.50;;;;;29.25;100.00;100969.22;5060910;28;51169;-48
2022/05/18 00:59:47;;;;;;;;;13.25;2.75;;;;;29.20;100.00;100960.47;5059926;28;51190;-48
2022/05/18 01:02:48;;;;;;;;;17.00;7.75;;;;;29.28;100.00;100962.63;5060853;28;51462;-48
2022/05/18 01:05:35;;;;;;;;;7.75;5.75;;;;;29.29;100.00;100964.38;5060900;28;51423;-47
2022/05/18 01:08:31;;;;;;;;;7.25;5.25;;;;;29.28;100.00;100962.63;5045652;28;51124;-49
2022/05/18 01:11:20;;;;;;;;;11.25;7.00;;;;;29.28;100.00;100960.72;5045617;28;51188;-49
2022/05/18 01:14:30;;;;;;;;;8.50;6.50;;;;;29.29;100.00;100956.13;5061053;28;51234;-48
2022/05/18 01:17:20;;;;;;;;;10.50;5.75;;;;;29.28;100.00;100962.63;5042538;28;51074;-49
2022/05/18 01:20:13;;;;;;;;;8.50;5.75;;;;;29.27;100.00;100958.97;5031144;28;51162;-49
2022/05/18 01:23:28;;;;;;;;;10.00;8.25;;;;;29.29;100.00;100948.78;5060511;28;51028;-49
2022/05/18 01:26:37;;;;;;;;;9.75;6.50;;;;;29.26;100.00;100949.00;5060822;28;51169;-46
2022/05/18 01:29:43;;;;;;;;;10.00;7.00;;;;;29.29;100.00;100937.81;5060312;28;51588;-51
2022/05/18 01:33:15;;;;;;;;;15.25;7.75;;;;;29.27;100.00;100939.81;5060471;28;51013;-48
2022/05/18 01:36:07;;;;;;;;;7.50;5.75;;;;;29.27;100.00;100933.47;5060479;28;51441;-47
2022/05/18 01:38:52;;;;;;;;;7.75;6.75;;;;;29.25;100.00;100921.75;5060463;28;51272;-47
2022/05/18 01:41:54;;;;;;;;;9.50;6.50;;;;;29.25;100.00;100927.22;5045463;28;51112;-47
2022/05/18 01:44:40;;;;;;;;;5.00;5.00;;;;;29.24;100.00;100920.88;5045526;28;51077;-47
2022/05/18 01:47:26;;;;;;;;;10.75;6.50;;;;;29.18;100.00;100914.03;5060066;28;51656;-49
2022/05/18 01:50:23;;;;;;;;;9.75;6.50;;;;;29.26;100.00;100927.09;5060088;28;51066;-51
2022/05/18 01:53:10;;;;;;;;;10.00;5.50;;;;;29.23;100.00;100916.41;5040256;28;51227;-49
2022/05/18 01:55:58;;;;;;;;;16.25;6.25;;;;;29.28;100.00;100927.84;5024514;28;51382;-49
2022/05/18 01:59:17;;;;;;;;;15.50;9.25;;;;;29.29;100.00;100920.50;5027528;28;51161;-48
2022/05/18 02:02:12;;;;;;;;;12.50;6.50;;;;;29.25;100.00;100905.31;5024386;28;51508;-49
2022/05/18 02:05:00;;;;;;;;;10.75;5.00;;;;;29.28;100.00;100916.88;5039512;28;51124;-48
2022/05/18 02:07:57;;;;;;;;;12.25;10.25;;;;;29.32;100.00;100912.03;5040170;28;51218;-48
2022/05/18 02:11:11;;;;;;;;;10.25;6.00;;;;;29.30;100.00;100919.53;5039254;28;51198;-49
2022/05/18 02:14:09;;;;;;;;;9.75;6.75;;;;;29.35;100.00;100917.31;5054990;28;51071;-50
2022/05/18 02:17:16;;;;;;;;;12.50;6.75;;;;;29.36;100.00;100927.28;5059287;28;51206;-49
2022/05/18 02:20:04;;;;;;;;;12.25;6.25;;;;;29.36;100.00;100917.19;5047083;28;51179;-50
2022/05/18 02:22:49;;;;;;;;;7.50;5.75;;;;;29.34;100.00;100912.81;5024480;28;51080;-49
2022/05/18 02:25:37;;;;;;;;;9.75;7.00;;;;;29.36;100.00;100910.81;5039480;28;51102;-50
2022/05/18 02:28:23;;;;;;;;;10.00;7.75;;;;;29.36;100.00;100906.22;5024358;28;51326;-48
2022/05/18 02:31:11;;;;;;;;;14.00;8.00;;;;;29.34;100.00;100915.56;5038974;28;51231;-49
2022/05/18 02:33:58;;;;;;;;;13.00;6.25;;;;;29.34;100.00;100918.28;5039486;28;51269;-48
2022/05/18 02:36:44;;;;;;;;;15.25;7.50;;;;;29.35;100.00;100911.81;5027235;28;51393;-48
2022/05/18 02:39:32;;;;;;;;;15.00;6.50;;;;;29.32;100.00;100901.94;5024049;28;51102;-47
2022/05/18 02:42:31;;;;;;;;;11.25;7.25;;;;;29.29;100.00;100910.41;5039029;28;51117;-49
2022/05/18 02:45:21;;;;;;;;;7.75;7.00;;;;;29.26;100.00;100909.78;5039421;28;51224;-50
2022/05/18 02:48:11;;;;;;;;;15.00;7.50;;;;;29.23;100.00;100902.69;5038860;28;51289;-47
2022/05/18 02:50:58;;;;;;;;;8.25;7.75;;;;;29.26;100.00;100907.06;5042032;28;51263;-49
2022/05/18 02:53:56;;;;;;;;;9.00;5.50;;;;;29.28;100.00;100903.19;5059321;28;51397;-48
2022/05/18 02:56:52;;;;;;;;;12.75;7.50;;;;;29.28;100.00;100905.06;5059287;28;51109;-51
2022/05/18 02:59:51;;;;;;;;;10.50;8.25;;;;;29.31;100.00;100907.56;5059372;28;51038;-46
2022/05/18 03:02:52;;;;;;;;;8.25;6.00;;;;;29.32;100.00;100890.09;5058963;28;51059;-48
2022/05/18 03:05:37;;;;;;;;;10.00;5.50;;;;;29.29;100.00;100893.09;5059144;28;51407;-47
2022/05/18 03:08:29;;;;;;;;;9.75;7.75;;;;;29.26;100.00;100885.13;5058917;28;51155;-51
2022/05/18 03:11:14;;;;;;;;;12.25;6.75;;;;;29.23;100.00;100878.91;5044663;28;51184;-50
2022/05/18 03:14:00;;;;;;;;;12.00;6.00;;;;;29.27;100.00;100878.66;5043635;28;51406;-47
2022/05/18 03:16:52;;;;;;;;;12.00;6.00;;;;;29.24;100.00;100882.53;5058859;28;51142;-50
2022/05/18 03:19:41;;;;;;;;;12.50;8.50;;;;;29.23;100.00;100869.81;5058736;28;51171;-48
2022/05/18 03:25:33;;;;;;;;;11.25;5.75;;;;;29.16;100.00;100869.44;5059022;28;51052;-50
2022/05/18 03:29:00;;;;;;;;;12.50;7.50;;;;;29.14;100.00;100863.19;4957503;28;52089;-49
2022/05/18 03:31:48;;;;;;;;;10.00;7.50;;;;;29.13;100.00;100858.72;4958544;28;51284;-47
2022/05/18 03:34:54;;;;;;;;;9.25;5.00;;;;;29.16;100.00;100863.94;4960756;28;51161;-51
2022/05/18 03:37:42;;;;;;;;;7.25;5.25;;;;;29.19;100.00;100862.81;4961362;28;51208;-48
2022/05/18 03:40:29;;;;;;;;;12.50;6.50;;;;;29.17;100.00;100854.75;4960894;28;51474;-48
2022/05/18 03:43:15;;;;;;;;;10.00;7.50;;;;;29.20;100.00;100853.63;4961170;28;51117;-52
2022/05/18 03:46:06;;;;;;;;;13.50;5.50;;;;;29.17;100.00;100848.38;4947536;28;51421;-48
2022/05/18 03:48:53;;;;;;;;;11.00;7.00;;;;;29.12;100.00;100834.19;4947277;28;51293;-50
2022/05/18 03:51:49;;;;;;;;;8.75;8.25;;;;;29.17;100.00;100838.31;4961010;28;53081;-49
2022/05/18 03:54:45;;;;;;;;;9.75;7.50;;;;;29.17;100.00;100835.56;4960854;28;51200;-51
2022/05/18 03:57:52;;;;;;;;;12.25;8.50;;;;;29.17;100.00;100838.31;4902908;28;51244;-47
2022/05/18 04:00:41;;;;;;;;;15.75;6.50;;;;;29.19;100.00;100846.38;4902963;28;51250;-51
2022/05/18 04:03:38;;;;;;;;;7.50;6.50;;;;;29.07;100.00;100819.00;4925766;28;51144;-51
2022/05/18 04:06:22;;;;;;;;;11.75;8.00;;;;;29.19;100.00;100838.16;4998187;28;51532;-49
2022/05/18 04:09:24;;;;;;;;;18.50;8.00;;;;;29.21;100.00;100848.00;4999573;28;51191;-50
2022/05/18 04:12:14;;;;;;;;;13.75;8.00;;;;;29.05;100.00;100820.13;4999627;28;51434;-53
2022/05/18 04:14:59;;;;;;;;;13.25;6.50;;;;;29.26;100.00;100857.72;4999464;28;51234;-49
2022/05/18 04:17:45;;;;;;;;;29.75;20.00;;;;;29.25;100.00;100856.88;4999723;28;51118;-50
2022/05/18 04:20:32;;;;;;;;;40.25;32.00;;;;;29.19;100.00;100847.28;4999261;28;51227;-49
2022/05/18 04:23:30;;;;;;;;;39.50;32.00;;;;;29.19;100.00;100850.00;4999519;28;51625;-50
2022/05/18 04:26:16;;;;;;;;;46.25;35.50;;;;;29.12;100.00;100848.75;4999192;28;51186;-48
2022/05/18 04:29:00;;;;;;;;;42.50;33.25;;;;;29.11;100.00;100854.34;5039724;28;51170;-47
2022/05/18 04:31:50;;;;;;;;;46.00;36.75;;;;;29.09;100.00;100856.34;5058162;27;51146;-49
2022/05/18 04:34:36;;;;;;;;;48.00;39.00;;;;;29.01;100.00;100846.88;5061534;28;51386;-49
2022/05/18 04:37:26;;;;;;;;;48.50;38.50;;;;;29.04;100.00;100853.97;5061362;27;51662;-51
2022/05/18 04:40:15;;;;;;;;;55.25;43.75;;;;;29.02;100.00;100855.97;5060973;28;51126;-51
2022/05/18 04:43:02;;;;;;;;;63.25;48.25;;;;;29.00;100.00;100857.94;5061214;28;51052;-49
2022/05/18 04:45:55;;;;;;;;;68.25;50.50;;;;;28.99;100.00;100861.72;5061059;28;51247;-49
2022/05/18 04:49:06;;;;;;;;;65.25;52.25;;;;;28.97;100.00;100869.16;5061640;28;51684;-53
2022/05/18 04:51:56;;;;;;;;;68.50;51.00;;;;;28.95;100.00;100863.78;5060761;28;51045;-52
2022/05/18 04:54:56;;;;;;;;;64.00;50.75;;;;;28.92;100.00;100858.59;5061318;28;51255;-50
2022/05/18 04:57:42;;;;;;;;;57.50;46.00;;;;;28.87;100.00;100856.22;5045414;28;51597;-53
2022/05/18 05:00:27;;;;;;;;;63.50;50.50;;;;;28.83;100.00;100856.56;5057208;28;51116;-46
2022/05/18 05:03:13;;;;;;;;;68.50;50.50;;;;;28.81;100.00;100848.47;5060887;28;51407;-47
2022/05/18 05:06:04;;;;;;;;;67.50;51.75;;;;;28.87;100.00;100858.94;5030545;28;51043;-49
2022/05/18 05:08:49;;;;;;;;;68.00;48.50;;;;;28.81;100.00;100853.09;5060951;28;51045;-52
2022/05/18 05:11:44;;;;;;;;;65.50;46.25;;;;;28.82;100.00;100872.13;5060893;28;51119;-50
2022/05/18 05:14:57;;;;;;;;;57.50;43.75;;;;;28.80;100.00;100874.09;4941750;28;51812;-51
2022/05/18 05:17:46;;;;;;;;;57.75;46.00;;;;;28.79;100.00;100876.97;4945921;28;51487;-51
2022/05/18 05:20:33;;;;;;;;;54.75;45.00;;;;;28.77;100.00;100877.09;4951032;28;51242;-53
2022/05/18 05:23:32;;;;;;;;;56.00;41.75;;;;;28.74;100.00;100880.94;4957131;28;51423;-52
2022/05/18 05:26:30;;;;;;;;;55.50;42.00;;;;;28.72;100.00;100882.94;4958999;28;51184;-53
2022/05/18 05:29:57;;;;;;;;;50.00;39.25;;;;;28.74;100.00;100880.06;4959068;28;51594;-49
2022/05/18 05:33:22;;;;;;;;;50.50;41.00;;;;;28.73;100.00;100883.81;4958920;28;51424;-51
2022/05/18 05:36:10;;;;;;;;;49.25;40.25;;;;;28.71;100.00;100885.75;4958928;28;51259;-51
2022/05/18 05:38:57;;;;;;;;;55.75;41.50;;;;;28.58;100.00;100866.69;4972477;28;51214;-51
2022/05/18 05:41:45;;;;;;;;;46.75;37.25;;;;;28.68;100.00;100881.38;4958950;28;51120;-50
2022/05/18 05:44:33;;;;;;;;;51.50;38.75;;;;;28.67;100.00;100885.13;4945494;28;51199;-50
2022/05/18 05:47:22;;;;;;;;;45.50;37.50;;;;;28.71;100.00;100896.69;5059689;28;51061;-48
2022/05/18 05:50:11;;;;;;;;;48.75;36.25;;;;;28.73;100.00;100889.28;5059701;28;51128;-50
2022/05/18 05:53:25;;;;;;;;;49.75;36.00;;;;;28.77;100.00;100888.06;5012774;28;51269;-47
2022/05/18 05:56:13;;;;;;;;;51.25;38.75;;;;;28.82;100.00;100901.38;5039271;28;51679;-50
2022/05/18 05:59:00;;;;;;;;;41.75;36.75;;;;;28.86;100.00;100887.31;5039625;28;51289;-52
2022/05/18 06:01:54;;;;;;;;;52.50;40.00;;;;;28.94;100.00;100891.31;5039741;28;51089;-50
2022/05/18 06:04:49;;;;;;;;;0.00;0.00;;;;;29.13;100.00;100901.69;5024317;28;51229;-51
2022/05/18 06:07:48;;;;;;;;;54.50;43.00;;;;;29.26;100.00;100896.94;5039325;28;51967;-51
2022/05/18 06:10:38;;;;;;;;;53.75;44.25;;;;;29.43;100.00;100898.34;5036382;28;51055;-51
2022/05/18 06:13:27;;;;;;;;;62.50;48.25;;;;;29.67;100.00;100902.84;5034763;28;51158;-53
2022/05/18 06:16:16;;;;;;;;;53.25;40.75;;;;;29.86;100.00;100912.28;5039701;28;51165;-52
2022/05/18 06:19:02;;;;;;;;;54.50;42.50;;;;;30.09;100.00;100929.63;5038810;28;51293;-51
2022/05/18 06:21:50;;;;;;;;;52.75;41.50;;;;;30.30;100.00;100938.81;5039609;28;51213;-51
2022/05/18 06:24:40;;;;;;;;;52.00;40.75;;;;;30.54;100.00;100942.34;5047606;28;51149;-53
2022/05/18 06:27:25;;;;;;;;;55.00;41.25;;;;;30.74;100.00;100936.03;5060214;28;51238;-52
2022/05/18 06:30:13;;;;;;;;;49.25;40.50;;;;;31.07;100.00;100945.09;5047801;28;51051;-53
2022/05/18 06:33:02;;;;;;;;;46.25;38.00;;;;;31.43;100.00;100960.38;5047413;28;51746;-52
2022/05/18 06:36:12;;;;;;;;;48.25;39.00;;;;;31.80;100.00;100963.44;4977797;28;51112;-53
2022/05/18 06:38:59;;;;;;;;;52.00;40.00;;;;;32.17;100.00;100972.09;4968431;28;51238;-50
2022/05/18 06:41:48;;;;;;;;;51.50;40.50;;;;;32.49;100.00;100973.78;4958209;28;51498;-53
2022/05/18 06:45:03;;;;;;;;;54.25;43.50;;;;;32.83;100.00;100989.94;4958507;28;51149;-51
2022/05/18 06:47:48;;;;;;;;;55.00;41.50;;;;;33.12;100.00;100991.78;4954536;28;51643;-51
2022/05/18 06:50:38;;;;;;;;;56.50;44.75;;;;;33.59;100.00;100993.75;4958183;28;51154;-53
2022/05/18 06:53:45;;;;;;;;;58.25;44.00;;;;;34.18;100.00;101007.31;4936703;28;51543;-52
2022/05/18 06:56:40;;;;;;;;;50.75;41.00;;;;;34.77;100.00;101018.84;4977896;28;51140;-53
2022/05/18 06:59:25;;;;;;;;;58.25;42.00;;;;;35.05;100.00;101024.34;4989831;28;51133;-51
2022/05/18 07:02:16;;;;;;;;;55.00;42.00;;;;;35.43;100.00;101041.59;4982961;28;51126;-54
2022/05/18 07:05:04;;;;;;;;;60.75;45.25;;;;;35.75;100.00;101029.00;4997304;28;51198;-54
2022/05/18 07:07:52;;;;;;;;;57.00;44.00;;;;;36.34;100.00;101050.44;5001562;28;51157;-52
2022/05/18 07:10:50;;;;;;;;;53.50;43.00;;;;;36.62;100.00;101060.41;5000567;28;51139;-50
2022/05/18 07:27:54;;;;;;;;;47.75;38.25;;;;;38.84;100.00;101109.22;4267620;33;51031;-50
2022/05/18 07:30:39;;;;;;;;;47.50;39.25;;;;;38.93;100.00;101115.59;5036019;28;51082;-54
2022/05/18 07:33:29;;;;;;;;;47.75;39.25;;;;;39.23;100.00;101115.72;5036707;28;51580;-52
2022/05/18 07:36:15;;;;;;;;;49.25;37.50;;;;;39.71;100.00;101115.53;5036072;28;51199;-52
2022/05/18 07:39:11;;;;;;;;;48.25;38.00;;;;;40.29;100.00;101128.84;5035778;28;52546;-52
2022/05/18 07:42:04;;;;;;;;;51.75;43.00;;;;;40.69;100.00;101131.31;5036736;28;51023;-53
2022/05/18 07:44:56;;;;;;;;;45.25;35.00;;;;;41.14;100.00;101134.00;5036689;28;51075;-49
2022/05/18 07:47:43;;;;;;;;;46.50;34.25;;;;;41.47;99.57;101137.13;5035975;28;51350;-52
2022/05/18 07:50:29;;;;;;;;;44.25;33.25;;;;;41.89;98.06;101150.38;5036098;28;51168;-49
2022/05/18 07:53:20;;;;;;;;;39.00;32.75;;;;;42.13;96.93;101135.06;5035675;28;51163;-54
2022/05/18 07:56:19;;;;;;;;;41.00;33.25;;;;;42.55;95.39;101154.66;5035514;28;51131;-50
2022/05/18 08:01:52;;;;;;;;;40.25;31.25;;;;;42.42;93.05;101155.47;5014095;28;51209;-53
2022/05/18 08:04:40;;;;;;;;;39.50;32.00;;;;;41.67;93.68;101153.22;5014271;28;51613;-53
2022/05/18 08:07:26;;;;;;;;;40.75;31.75;;;;;40.99;94.09;101150.75;5010127;28;51169;-52
2022/05/18 08:16:31;;;;;;;;;37.50;30.75;;;;;39.31;97.55;101163.00;5008359;28;51553;-50
2022/05/18 08:19:21;;;;;;;;;38.75;31.00;;;;;38.93;98.68;101154.56;5021958;28;51182;-49
2022/05/18 08:22:09;;;;;;;;;36.50;30.75;;;;;38.62;98.73;101158.16;5014469;28;51196;-51
2022/05/18 08:25:24;;;;;;;;;36.50;29.50;;;;;38.38;100.00;101156.31;5013151;28;51458;-54
2022/05/18 08:28:11;;;;;;;;;29.50;26.50;;;;;38.14;100.00;101153.44;5017646;28;51344;-51
2022/05/18 08:31:01;;;;;;;;;27.25;24.25;;;;;37.95;100.00;101153.81;5012242;28;51558;-51
2022/05/18 08:33:50;;;;;;;;;30.25;23.00;;;;;37.73;100.00;101155.41;5020033;28;51182;-51
2022/05/18 08:36:38;;;;;;;;;38.75;28.75;;;;;37.59;100.00;101159.72;5005732;28;51215;-51
2022/05/18 08:39:38;;;;;;;;;25.00;21.25;;;;;37.32;100.00;101154.31;5034027;28;51606;-51
2022/05/18 08:42:56;;;;;;;;;20.50;17.50;;;;;37.05;100.00;101144.38;5038285;28;51660;-50
2022/05/18 08:46:07;;;;;;;;;20.00;17.25;;;;;36.97;100.00;101161.00;5038099;28;51265;-50
2022/05/18 08:49:45;;;;;;;;;19.00;16.00;;;;;36.81;100.00;101162.69;5041400;28;51151;-51
2022/05/18 08:53:03;;;;;;;;;20.50;15.50;;;;;36.68;100.00;101167.81;5041665;28;51136;-52
2022/05/18 08:56:14;;;;;;;;;22.00;17.00;;;;;36.47;100.00;101160.81;5040560;28;51060;-49
2022/05/18 08:59:04;;;;;;;;;23.75;18.50;;;;;36.20;100.00;101167.38;5041311;28;51055;-51
2022/05/18 09:01:55;;;;;;;;;21.50;15.25;;;;;36.02;100.00;101170.22;5039481;28;51187;-50
2022/05/18 09:05:04;;;;;;;;;21.75;16.25;;;;;35.92;100.00;101175.84;5040419;28;51118;-50
2022/05/18 09:08:17;;;;;;;;;19.00;14.50;;;;;35.91;100.00;101174.09;5040458;28;51116;-49
2022/05/18 09:11:22;;;;;;;;;23.25;19.25;;;;;35.78;100.00;101174.50;5039592;28;51560;-51
2022/05/18 09:14:30;;;;;;;;;20.50;16.25;;;;;35.82;100.00;101179.56;5035530;28;51193;-52
2022/05/18 09:17:37;;;;;;;;;17.50;14.75;;;;;35.77;100.00;101175.56;5038201;28;51192;-51
2022/05/18 09:21:13;;;;;;;;;20.50;15.75;;;;;35.67;100.00;101183.94;5017579;28;51200;-51
2022/05/18 09:24:24;;;;;;;;;21.00;15.75;;;;;35.60;100.00;101174.56;5022955;28;51177;-50
2022/05/18 09:27:28;;;;;;;;;17.75;13.75;;;;;35.49;100.00;101181.19;5040827;28;51412;-51
2022/05/18 09:30:45;;;;;;;;;21.75;16.25;;;;;35.41;100.00;101170.88;5040580;28;51024;-51
2022/05/18 09:33:55;;;;;;;;;22.00;17.75;;;;;35.27;100.00;101171.44;5039281;28;51352;-52
2022/05/18 09:36:49;;;;;;;;;23.25;16.75;;;;;35.27;100.00;101179.75;5040301;28;51193;-53
2022/05/18 09:39:46;;;;;;;;;18.50;13.50;;;;;35.20;100.00;101172.06;5039956;28;51444;-49
2022/05/18 09:43:17;;;;;;;;;23.00;16.50;;;;;35.06;100.00;101178.16;5039794;28;51155;-51
2022/05/18 09:46:02;;;;;;;;;20.25;16.75;;;;;35.02;100.00;101172.06;5041226;28;51184;-51
2022/05/18 09:49:35;;;;;;;;;23.50;17.25;;;;;34.94;100.00;101177.47;5040405;28;51083;-51
2022/05/18 09:52:40;;;;;;;;;15.75;13.25;;;;;34.85;100.00;101170.97;5040020;28;51043;-53
2022/05/18 09:55:28;;;;;;;;;23.50;14.00;;;;;34.81;100.00;101168.69;5039084;28;51096;-52
2022/05/18 09:58:37;;;;;;;;;17.25;13.00;;;;;34.75;100.00;101161.88;5053331;28;51127;-51
2022/05/18 10:07:45;;;;;;;;;9.25;9.00;;;;;34.85;100.00;101161.81;5037421;28;51383;-53
2022/05/18 10:10:33;;;;;;;;;21.25;15.00;;;;;34.86;100.00;101161.66;5038734;28;51165;-52
2022/05/18 10:13:29;;;;;;;;;15.00;12.25;;;;;34.78;100.00;101152.41;5039845;28;51099;-53
2022/05/18 10:17:03;;;;;;;;;18.50;14.50;;;;;34.78;100.00;101156.00;5039197;28;51168;-52
2022/05/18 10:20:07;;;;;;;;;20.50;14.75;;;;;34.77;100.00;101154.28;4997746;28;51140;-49
2022/05/18 10:22:52;;;;;;;;;14.00;10.25;;;;;34.75;100.00;101157.19;5030174;28;51461;-52
2022/05/18 10:25:51;;;;;;;;;20.25;15.75;;;;;34.68;100.00;101124.81;5022785;28;51236;-50
2022/05/18 10:28:46;;;;;;;;;14.75;9.75;;;;;34.88;100.00;101154.06;5039914;28;51039;-51
2022/05/18 10:31:46;;;;;;;;;25.00;12.00;;;;;34.88;100.00;101153.19;5033015;28;51213;-51
2022/05/18 10:34:34;;;;;;;;;20.50;12.50;;;;;34.87;100.00;101163.38;5038411;28;51237;-53
2022/05/18 10:37:55;;;;;;;;;18.25;12.75;;;;;34.94;100.00;101149.84;5037747;28;51159;-52
2022/05/18 10:40:40;;;;;;;;;12.50;12.00;;;;;34.94;100.00;101151.75;5038753;28;51091;-51
2022/05/18 10:43:52;;;;;;;;;18.50;11.50;;;;;34.97;100.00;101155.06;5037204;28;51547;-51
2022/05/18 10:46:43;;;;;;;;;17.25;13.00;;;;;35.04;100.00;101144.25;5039369;28;51165;-51
2022/05/18 10:49:52;;;;;;;;;19.25;11.25;;;;;35.11;100.00;101138.97;5038787;28;51172;-50
2022/05/18 10:53:00;;;;;;;;;18.50;15.00;;;;;35.17;100.00;101146.63;5036842;28;51059;-49
2022/05/18 10:56:14;;;;;;;;;23.50;14.75;;;;;35.21;100.00;101148.06;5038008;28;51064;-52
2022/05/18 10:59:42;;;;;;;;;13.00;11.75;;;;;35.14;100.00;101146.94;5035698;28;51149;-51
2022/05/18 11:02:49;;;;;;;;;19.75;12.75;;;;;35.21;100.00;101143.38;4977232;28;51096;-52
2022/05/18 11:06:09;;;;;;;;;11.50;10.00;;;;;35.18;100.00;101146.47;5035076;28;51257;-51
2022/05/18 11:09:00;;;;;;;;;20.25;12.00;;;;;35.18;100.00;101153.91;5038142;28;51268;-50
2022/05/18 11:12:22;;;;;;;;;11.25;10.75;;;;;35.10;100.00;101149.13;5037784;28;51500;-51
2022/05/18 11:15:35;;;;;;;;;16.25;10.75;;;;;35.09;100.00;101149.31;5026026;28;51133;-51
2022/05/18 11:18:32;;;;;;;;;17.50;10.25;;;;;35.04;100.00;101145.09;5036831;28;51050;-53
2022/05/18 11:21:42;;;;;;;;;16.75;12.00;;;;;35.13;100.00;101142.44;5035625;28;51162;-51
2022/05/18 11:24:39;;;;;;;;;11.25;7.50;;;;;35.30;100.00;101155.41;5035744;28;51211;-50
2022/05/18 11:27:33;;;;;;;;;14.75;10.50;;;;;35.40;100.00;101140.63;5038581;28;51252;-51
2022/05/18 11:30:40;;;;;;;;;12.00;10.00;;;;;35.45;100.00;101143.81;5038869;28;51343;-52
2022/05/18 11:33:32;;;;;;;;;14.25;9.00;;;;;35.47;100.00;101139.84;5037661;28;51213;-51
2022/05/18 11:36:37;;;;;;;;;11.00;6.50;;;;;35.37;100.00;101139.03;5038341;28;51206;-51
2022/05/18 11:39:40;;;;;;;;;5.75;4.00;;;;;35.33;100.00;101138.50;5036404;28;51074;-50
2022/05/18 11:42:32;;;;;;;;;7.00;4.50;;;;;35.14;100.00;101127.56;5033129;28;51601;-51
2022/05/18 11:45:39;;;;;;;;;3.50;3.50;;;;;35.00;100.00;101127.13;5035494;28;51296;-52
2022/05/18 11:49:04;;;;;;;;;6.50;4.50;;;;;34.83;100.00;101116.84;5019835;28;51125;-51
2022/05/18 11:52:21;;;;;;;;;9.50;6.00;;;;;34.72;100.00;101116.03;5037547;28;51184;-50
2022/05/18 11:55:30;;;;;;;;;4.75;4.25;;;;;34.70;100.00;101115.34;5019631;28;51289;-50
2022/05/18 11:58:49;;;;;;;;;6.25;5.50;;;;;34.65;100.00;101105.78;5034733;28;51169;-52
2022/05/18 12:01:51;;;;;;;;;6.75;4.25;;;;;34.53;100.00;101116.16;5036575;28;51165;-51
2022/05/18 12:05:00;;;;;;;;;11.75;4.00;;;;;34.52;100.00;101117.19;5042262;28;51005;-50
2022/05/18 12:08:00;;;;;;;;;6.00;3.25;;;;;34.47;100.00;101108.50;5035898;28;51157;-49
2022/05/18 12:11:00;;;;;;;;;3.00;3.00;;;;;34.42;100.00;101112.59;5039275;28;51192;-50
2022/05/18 12:14:03;;;;;;;;;7.75;3.75;;;;;34.36;100.00;101106.78;5040063;28;51129;-50
2022/05/18 12:17:22;;;;;;;;;11.00;4.00;;;;;34.33;100.00;101101.56;5035980;28;51122;-52
2022/05/18 12:20:23;;;;;;;;;4.75;3.00;;;;;34.35;100.00;101100.38;5040691;28;51138;-52
2022/05/18 12:23:14;;;;;;;;;10.00;7.50;;;;;34.57;100.00;101101.03;5039577;28;51195;-51
2022/05/18 12:25:59;;;;;;;;;5.75;3.00;;;;;34.58;100.00;101083.44;5040917;28;51523;-51
2022/05/18 12:28:44;;;;;;;;;6.75;4.25;;;;;34.51;100.00;101085.94;5041923;28;51135;-52
2022/05/18 12:31:29;;;;;;;;;8.00;5.00;;;;;34.64;100.00;101093.84;5041734;28;51260;-50
2022/05/18 12:34:14;;;;;;;;;5.25;3.00;;;;;34.79;100.00;101091.41;5039734;28;51237;-53
2022/05/18 12:37:24;;;;;;;;;10.50;6.50;;;;;34.91;100.00;101087.44;5068805;27;51210;-52
2022/05/18 12:40:14;;;;;;;;;4.50;3.50;;;;;34.87;100.00;101085.97;5038043;28;51131;-50
2022/05/18 12:43:11;;;;;;;;;7.50;3.75;;;;;34.78;100.00;101077.78;5041451;28;51232;-49
2022/05/18 12:46:00;;;;;;;;;9.75;3.25;;;;;34.82;100.00;101079.19;5042159;28;51241;-51
2022/05/18 12:49:01;;;;;;;;;6.00;4.75;;;;;34.78;100.00;101070.34;5040152;28;51229;-51
2022/05/18 12:51:56;;;;;;;;;6.25;3.25;;;;;34.76;100.00;101064.97;5042434;28;51414;-52
2022/05/18 12:54:48;;;;;;;;;5.75;3.75;;;;;34.72;100.00;101065.44;5039053;28;51306;-49
2022/05/18 12:57:54;;;;;;;;;8.50;3.75;;;;;34.64;100.00;101054.31;5038985;28;51153;-52
2022/05/18 13:01:01;;;;;;;;;4.00;4.00;;;;;34.64;100.00;101055.16;5039735;28;51214;-49
2022/05/18 13:04:20;;;;;;;;;3.50;3.50;;;;;34.60;100.00;101046.31;5038624;28;51189;-49
2022/05/18 13:07:41;;;;;;;;;4.25;2.00;;;;;34.56;100.00;101044.03;5038595;28;51352;-52
2022/05/18 13:10:33;;;;;;;;;7.25;5.75;;;;;34.48;100.00;101035.66;4963840;28;51240;-52
2022/05/18 13:13:25;;;;;;;;;5.75;3.00;;;;;34.43;100.00;101036.97;5038174;28;51117;-49
2022/05/18 13:16:10;;;;;;;;;11.00;6.00;;;;;34.32;100.00;101025.25;5040933;28;51199;-49
2022/05/18 13:18:59;;;;;;;;;9.00;4.25;;;;;34.28;100.00;101025.56;5036332;28;51206;-54
2022/05/18 13:21:52;;;;;;;;;10.25;6.50;;;;;34.33;100.00;101025.09;5040260;28;51277;-52
2022/05/18 13:24:45;;;;;;;;;8.50;7.00;;;;;34.35;100.00;101017.53;5039312;28;51086;-53
2022/05/18 13:27:55;;;;;;;;;7.00;5.00;;;;;34.37;100.00;101015.50;5039901;28;51255;-50
2022/05/18 13:30:47;;;;;;;;;9.50;9.50;;;;;34.39;100.00;101027.28;5036035;28;51069;-52
2022/05/18 13:34:04;;;;;;;;;12.00;9.00;;;;;34.29;100.00;101016.25;5039618;28;51394;-54
2022/05/18 13:36:54;;;;;;;;;6.50;4.00;;;;;34.21;100.00;101004.22;5033511;28;51234;-50
2022/05/18 13:39:41;;;;;;;;;4.25;4.00;;;;;34.22;100.00;101017.03;5040899;28;51157;-52
2022/05/18 13:42:28;;;;;;;;;10.00;5.25;;;;;34.11;100.00;101015.34;5036367;28;51186;-50
2022/05/18 13:45:13;;;;;;;;;5.25;3.50;;;;;34.07;100.00;101014.78;5040671;28;51048;-51
2022/05/18 13:47:58;;;;;;;;;4.00;3.75;;;;;34.08;100.00;101010.13;5040209;28;51126;-52
2022/05/18 13:50:51;;;;;;;;;1.50;1.50;;;;;33.95;100.00;101004.97;5039801;28;51170;-53
2022/05/18 13:54:01;;;;;;;;;8.00;5.25;;;;;33.89;100.00;101002.81;5040119;28;51048;-50
2022/05/18 13:56:49;;;;;;;;;5.00;3.50;;;;;33.84;100.00;100992.19;5040585;28;51190;-51